sensor_id;sensor_type;location;lat;lon;timestamp;temperature;humidity
22337;DHT22;14992;50.844;4.418;2022-10-16T00:01:27;16.60;99.90
22337;DHT22;14992;50.844;4.418;2022-10-16T00:03:56;16.60;99.90
22337;DHT22;14992;50.844;4.418;2022-10-16T00:06:25;16.80;99.90
22337;DHT22;14992;50.844;4.418;2022-10-16T00:08:53;16.90;99.90
22337;DHT22;14992;50.844;4.418;2022-10-16T00:11:22;16.70;99.90
22337;DHT22;14992;50.844;4.418;2022-10-16T00:13:51;16.60;99.90
22337;DHT22;14992;50.844;4.418;2022-10-16T00:16:20;16.70;99.90
22337;DHT22;14992;50.844;4.418;2022-10-16T00:18:49;16.50;99.90
22337;DHT22;14992;50.844;4.418;2022-10-16T00:21:18;16.70;99.90
22337;DHT22;14992;50.844;4.418;2022-10-16T00:23:46;16.60;99.90
22337;DHT22;14992;50.844;4.418;2022-10-16T00:26:17;16.60;99.90
22337;DHT22;14992;50.844;4.418;2022-10-16T00:28:46;16.40;99.90
22337;DHT22;14992;50.844;4.418;2022-10-16T00:31:15;16.60;99.90
22337;DHT22;14992;50.844;4.418;2022-10-16T00:33:45;16.70;99.90
22337;DHT22;14992;50.844;4.418;2022-10-16T00:36:14;16.70;99.90
22337;DHT22;14992;50.844;4.418;2022-10-16T00:38:42;16.30;99.90
22337;DHT22;14992;50.844;4.418;2022-10-16T00:41:12;16.30;99.90
22337;DHT22;14992;50.844;4.418;2022-10-16T00:43:41;16.50;99.90
22337;DHT22;14992;50.844;4.418;2022-10-16T00:46:11;16.50;99.90
22337;DHT22;14992;50.844;4.418;2022-10-16T00:48:41;16.50;99.90
22337;DHT22;14992;50.844;4.418;2022-10-16T00:51:12;16.40;99.90
22337;DHT22;14992;50.844;4.418;2022-10-16T00:53:40;16.50;99.90
22337;DHT22;14992;50.844;4.418;2022-10-16T00:56:08;16.60;99.90
22337;DHT22;14992;50.844;4.418;2022-10-16T00:58:36;16.40;99.90
22337;DHT22;14992;50.844;4.418;2022-10-16T01:01:04;16.40;99.90
22337;DHT22;14992;50.844;4.418;2022-10-16T01:03:34;16.50;99.90
22337;DHT22;14992;50.844;4.418;2022-10-16T01:06:09;16.30;99.90
22337;DHT22;14992;50.844;4.418;2022-10-16T01:08:47;16.40;99.90
22337;DHT22;14992;50.844;4.418;2022-10-16T01:11:21;16.10;99.90
22337;DHT22;14992;50.844;4.418;2022-10-16T01:13:51;16.10;99.90
22337;DHT22;14992;50.844;4.418;2022-10-16T01:16:22;16.30;99.90
22337;DHT22;14992;50.844;4.418;2022-10-16T01:18:56;16.40;99.90
22337;DHT22;14992;50.844;4.418;2022-10-16T01:21:26;16.30;99.90
22337;DHT22;14992;50.844;4.418;2022-10-16T01:23:59;16.30;99.90
22337;DHT22;14992;50.844;4.418;2022-10-16T01:26:36;16.20;99.90
22337;DHT22;14992;50.844;4.418;2022-10-16T01:29:13;16.30;99.90
22337;DHT22;14992;50.844;4.418;2022-10-16T01:31:44;16.30;99.90
22337;DHT22;14992;50.844;4.418;2022-10-16T01:34:14;16.40;99.90
22337;DHT22;14992;50.844;4.418;2022-10-16T01:36:45;16.40;99.90
22337;DHT22;14992;50.844;4.418;2022-10-16T01:39:15;16.30;99.90
22337;DHT22;14992;50.844;4.418;2022-10-16T01:41:47;16.20;99.90
22337;DHT22;14992;50.844;4.418;2022-10-16T01:44:18;16.30;99.90
22337;DHT22;14992;50.844;4.418;2022-10-16T01:46:48;16.40;99.90
22337;DHT22;14992;50.844;4.418;2022-10-16T01:49:17;16.30;99.90
22337;DHT22;14992;50.844;4.418;2022-10-16T01:51:47;16.40;99.90
22337;DHT22;14992;50.844;4.418;2022-10-16T01:54:17;16.30;99.90
22337;DHT22;14992;50.844;4.418;2022-10-16T01:56:45;16.10;99.90
22337;DHT22;14992;50.844;4.418;2022-10-16T01:59:15;16.10;99.90
22337;DHT22;14992;50.844;4.418;2022-10-16T02:01:48;16.10;99.90
22337;DHT22;14992;50.844;4.418;2022-10-16T02:04:17;16.10;99.90
22337;DHT22;14992;50.844;4.418;2022-10-16T02:06:46;16.10;99.90
22337;DHT22;14992;50.844;4.418;2022-10-16T02:09:14;16.10;99.90
22337;DHT22;14992;50.844;4.418;2022-10-16T02:11:43;16.20;99.90
22337;DHT22;14992;50.844;4.418;2022-10-16T02:14:12;16.30;99.90
22337;DHT22;14992;50.844;4.418;2022-10-16T02:16:40;16.30;99.90
22337;DHT22;14992;50.844;4.418;2022-10-16T02:19:13;16.10;99.90
22337;DHT22;14992;50.844;4.418;2022-10-16T02:21:43;16.20;99.90
22337;DHT22;14992;50.844;4.418;2022-10-16T02:24:13;16.30;99.90
22337;DHT22;14992;50.844;4.418;2022-10-16T02:26:43;16.30;99.90
22337;DHT22;14992;50.844;4.418;2022-10-16T02:29:14;16.40;99.90
22337;DHT22;14992;50.844;4.418;2022-10-16T02:31:45;16.30;99.90
22337;DHT22;14992;50.844;4.418;2022-10-16T02:34:16;16.20;99.90
22337;DHT22;14992;50.844;4.418;2022-10-16T02:36:45;16.10;99.90
22337;DHT22;14992;50.844;4.418;2022-10-16T02:39:14;16.10;99.90
22337;DHT22;14992;50.844;4.418;2022-10-16T02:41:43;16.20;99.90
22337;DHT22;14992;50.844;4.418;2022-10-16T02:44:11;16.10;99.90
22337;DHT22;14992;50.844;4.418;2022-10-16T02:46:39;16.20;99.90
22337;DHT22;14992;50.844;4.418;2022-10-16T02:49:08;16.20;99.90
22337;DHT22;14992;50.844;4.418;2022-10-16T02:51:37;16.20;99.90
22337;DHT22;14992;50.844;4.418;2022-10-16T02:54:05;16.20;99.90
22337;DHT22;14992;50.844;4.418;2022-10-16T02:56:33;16.20;99.90
22337;DHT22;14992;50.844;4.418;2022-10-16T02:59:01;16.30;99.90
22337;DHT22;14992;50.844;4.418;2022-10-16T03:01:29;16.20;99.90
22337;DHT22;14992;50.844;4.418;2022-10-16T03:03:58;16.20;99.90
22337;DHT22;14992;50.844;4.418;2022-10-16T03:06:26;15.90;99.90
22337;DHT22;14992;50.844;4.418;2022-10-16T03:08:55;15.90;99.90
22337;DHT22;14992;50.844;4.418;2022-10-16T03:11:23;16.00;99.90
22337;DHT22;14992;50.844;4.418;2022-10-16T03:13:51;16.10;99.90
22337;DHT22;14992;50.844;4.418;2022-10-16T03:16:19;16.10;99.90
22337;DHT22;14992;50.844;4.418;2022-10-16T03:18:48;16.00;99.90
22337;DHT22;14992;50.844;4.418;2022-10-16T03:21:16;16.10;99.90
22337;DHT22;14992;50.844;4.418;2022-10-16T03:23:44;16.00;99.90
22337;DHT22;14992;50.844;4.418;2022-10-16T03:26:14;16.00;99.90
22337;DHT22;14992;50.844;4.418;2022-10-16T03:28:43;16.10;99.90
22337;DHT22;14992;50.844;4.418;2022-10-16T03:31:11;15.90;99.90
22337;DHT22;14992;50.844;4.418;2022-10-16T03:33:39;15.80;99.90
22337;DHT22;14992;50.844;4.418;2022-10-16T03:36:07;15.90;99.90
22337;DHT22;14992;50.844;4.418;2022-10-16T03:38:35;15.90;99.90
22337;DHT22;14992;50.844;4.418;2022-10-16T03:41:03;15.80;99.90
22337;DHT22;14992;50.844;4.418;2022-10-16T03:43:33;15.80;99.90
22337;DHT22;14992;50.844;4.418;2022-10-16T03:46:01;15.90;99.90
22337;DHT22;14992;50.844;4.418;2022-10-16T03:48:29;16.10;99.90
22337;DHT22;14992;50.844;4.418;2022-10-16T03:50:58;16.20;99.90
22337;DHT22;14992;50.844;4.418;2022-10-16T03:53:26;16.30;99.90
22337;DHT22;14992;50.844;4.418;2022-10-16T03:55:55;16.20;99.90
22337;DHT22;14992;50.844;4.418;2022-10-16T03:58:23;16.10;99.90
22337;DHT22;14992;50.844;4.418;2022-10-16T04:00:52;16.10;99.90
22337;DHT22;14992;50.844;4.418;2022-10-16T04:03:20;16.10;99.90
22337;DHT22;14992;50.844;4.418;2022-10-16T04:05:49;16.10;99.90
22337;DHT22;14992;50.844;4.418;2022-10-16T04:08:17;16.20;99.90
22337;DHT22;14992;50.844;4.418;2022-10-16T04:10:46;16.10;99.90
22337;DHT22;14992;50.844;4.418;2022-10-16T04:13:14;16.20;99.90
22337;DHT22;14992;50.844;4.418;2022-10-16T04:15:42;16.10;99.90
22337;DHT22;14992;50.844;4.418;2022-10-16T04:18:12;16.00;99.90
22337;DHT22;14992;50.844;4.418;2022-10-16T04:20:40;16.00;99.90
22337;DHT22;14992;50.844;4.418;2022-10-16T04:23:08;15.90;99.90
22337;DHT22;14992;50.844;4.418;2022-10-16T04:25:36;16.00;99.90
22337;DHT22;14992;50.844;4.418;2022-10-16T04:28:04;16.10;99.90
22337;DHT22;14992;50.844;4.418;2022-10-16T04:30:32;15.90;99.90
22337;DHT22;14992;50.844;4.418;2022-10-16T04:33:01;15.90;99.90
22337;DHT22;14992;50.844;4.418;2022-10-16T04:35:30;16.00;99.90
22337;DHT22;14992;50.844;4.418;2022-10-16T04:37:58;15.90;99.90
22337;DHT22;14992;50.844;4.418;2022-10-16T04:40:27;16.00;99.90
22337;DHT22;14992;50.844;4.418;2022-10-16T04:42:55;15.90;99.90
22337;DHT22;14992;50.844;4.418;2022-10-16T04:45:23;16.00;99.90
22337;DHT22;14992;50.844;4.418;2022-10-16T04:47:51;15.90;99.90
22337;DHT22;14992;50.844;4.418;2022-10-16T04:50:19;15.90;99.90
22337;DHT22;14992;50.844;4.418;2022-10-16T04:53:05;16.00;99.90
22337;DHT22;14992;50.844;4.418;2022-10-16T04:55:33;15.90;99.90
22337;DHT22;14992;50.844;4.418;2022-10-16T04:58:01;16.10;99.90
22337;DHT22;14992;50.844;4.418;2022-10-16T05:00:30;16.10;99.90
22337;DHT22;14992;50.844;4.418;2022-10-16T05:02:58;15.80;99.90
22337;DHT22;14992;50.844;4.418;2022-10-16T05:05:27;15.90;99.90
22337;DHT22;14992;50.844;4.418;2022-10-16T05:07:55;16.00;99.90
22337;DHT22;14992;50.844;4.418;2022-10-16T05:10:25;15.90;99.90
22337;DHT22;14992;50.844;4.418;2022-10-16T05:12:53;16.00;99.90
22337;DHT22;14992;50.844;4.418;2022-10-16T05:15:21;15.90;99.90
22337;DHT22;14992;50.844;4.418;2022-10-16T05:17:55;16.00;99.90
22337;DHT22;14992;50.844;4.418;2022-10-16T05:20:23;15.90;99.90
22337;DHT22;14992;50.844;4.418;2022-10-16T05:22:51;15.80;99.90
22337;DHT22;14992;50.844;4.418;2022-10-16T05:25:19;15.70;99.90
22337;DHT22;14992;50.844;4.418;2022-10-16T05:27:49;15.90;99.90
22337;DHT22;14992;50.844;4.418;2022-10-16T05:30:17;15.90;99.90
22337;DHT22;14992;50.844;4.418;2022-10-16T05:32:48;16.00;99.90
22337;DHT22;14992;50.844;4.418;2022-10-16T05:35:17;15.90;99.90
22337;DHT22;14992;50.844;4.418;2022-10-16T05:37:46;15.90;99.90
22337;DHT22;14992;50.844;4.418;2022-10-16T05:40:14;15.70;99.90
22337;DHT22;14992;50.844;4.418;2022-10-16T05:42:43;15.70;99.90
22337;DHT22;14992;50.844;4.418;2022-10-16T05:45:13;15.60;99.90
22337;DHT22;14992;50.844;4.418;2022-10-16T05:47:41;15.70;99.90
22337;DHT22;14992;50.844;4.418;2022-10-16T05:50:09;15.80;99.90
22337;DHT22;14992;50.844;4.418;2022-10-16T05:52:38;15.80;99.90
22337;DHT22;14992;50.844;4.418;2022-10-16T05:55:06;15.80;99.90
22337;DHT22;14992;50.844;4.418;2022-10-16T05:57:34;15.70;99.90
22337;DHT22;14992;50.844;4.418;2022-10-16T06:00:03;15.60;99.90
22337;DHT22;14992;50.844;4.418;2022-10-16T06:02:39;15.70;99.90
22337;DHT22;14992;50.844;4.418;2022-10-16T06:05:08;15.70;99.90
22337;DHT22;14992;50.844;4.418;2022-10-16T06:07:36;15.60;99.90
22337;DHT22;14992;50.844;4.418;2022-10-16T06:10:04;15.70;99.90
22337;DHT22;14992;50.844;4.418;2022-10-16T06:12:33;15.60;99.90
22337;DHT22;14992;50.844;4.418;2022-10-16T06:15:00;15.60;99.90
22337;DHT22;14992;50.844;4.418;2022-10-16T06:17:29;15.70;99.90
22337;DHT22;14992;50.844;4.418;2022-10-16T06:19:59;15.70;99.90
22337;DHT22;14992;50.844;4.418;2022-10-16T06:22:27;15.80;99.90
22337;DHT22;14992;50.844;4.418;2022-10-16T06:24:55;15.70;99.90
22337;DHT22;14992;50.844;4.418;2022-10-16T06:27:23;15.80;99.90
22337;DHT22;14992;50.844;4.418;2022-10-16T06:29:52;15.70;99.90
22337;DHT22;14992;50.844;4.418;2022-10-16T06:32:20;15.70;99.90
22337;DHT22;14992;50.844;4.418;2022-10-16T06:34:48;15.80;99.90
22337;DHT22;14992;50.844;4.418;2022-10-16T06:37:18;15.80;99.90
22337;DHT22;14992;50.844;4.418;2022-10-16T06:39:46;15.80;99.90
22337;DHT22;14992;50.844;4.418;2022-10-16T06:42:14;15.90;99.90
22337;DHT22;14992;50.844;4.418;2022-10-16T06:44:42;15.70;99.90
22337;DHT22;14992;50.844;4.418;2022-10-16T06:47:10;15.60;99.90
22337;DHT22;14992;50.844;4.418;2022-10-16T06:49:39;15.90;99.90
22337;DHT22;14992;50.844;4.418;2022-10-16T06:52:07;16.10;99.90
22337;DHT22;14992;50.844;4.418;2022-10-16T06:54:37;16.00;99.90
22337;DHT22;14992;50.844;4.418;2022-10-16T06:57:08;16.10;99.90
22337;DHT22;14992;50.844;4.418;2022-10-16T06:59:36;16.00;99.90
22337;DHT22;14992;50.844;4.418;2022-10-16T07:02:04;16.10;99.90
22337;DHT22;14992;50.844;4.418;2022-10-16T07:04:33;16.00;99.90
22337;DHT22;14992;50.844;4.418;2022-10-16T07:07:03;16.10;99.90
22337;DHT22;14992;50.844;4.418;2022-10-16T07:09:35;16.10;99.90
22337;DHT22;14992;50.844;4.418;2022-10-16T07:12:04;16.10;99.90
22337;DHT22;14992;50.844;4.418;2022-10-16T07:14:32;16.20;99.90
22337;DHT22;14992;50.844;4.418;2022-10-16T07:17:01;16.30;99.90
22337;DHT22;14992;50.844;4.418;2022-10-16T07:19:29;16.30;99.90
22337;DHT22;14992;50.844;4.418;2022-10-16T07:22:00;16.10;99.90
22337;DHT22;14992;50.844;4.418;2022-10-16T07:24:28;16.10;99.90
22337;DHT22;14992;50.844;4.418;2022-10-16T07:26:56;16.20;99.90
22337;DHT22;14992;50.844;4.418;2022-10-16T07:29:26;16.20;99.90
22337;DHT22;14992;50.844;4.418;2022-10-16T07:31:54;16.30;99.90
22337;DHT22;14992;50.844;4.418;2022-10-16T07:34:22;16.30;99.90
22337;DHT22;14992;50.844;4.418;2022-10-16T07:36:51;16.40;99.90
22337;DHT22;14992;50.844;4.418;2022-10-16T07:39:19;16.30;99.90
22337;DHT22;14992;50.844;4.418;2022-10-16T07:41:47;16.30;99.90
22337;DHT22;14992;50.844;4.418;2022-10-16T07:44:15;16.40;99.90
22337;DHT22;14992;50.844;4.418;2022-10-16T07:46:45;16.40;99.90
22337;DHT22;14992;50.844;4.418;2022-10-16T07:49:13;16.50;99.90
22337;DHT22;14992;50.844;4.418;2022-10-16T07:51:41;16.50;99.90
22337;DHT22;14992;50.844;4.418;2022-10-16T07:54:10;16.50;99.90
22337;DHT22;14992;50.844;4.418;2022-10-16T07:56:38;16.50;99.90
22337;DHT22;14992;50.844;4.418;2022-10-16T07:59:10;16.50;99.90
22337;DHT22;14992;50.844;4.418;2022-10-16T08:01:38;16.30;99.90
22337;DHT22;14992;50.844;4.418;2022-10-16T08:04:07;16.40;99.90
22337;DHT22;14992;50.844;4.418;2022-10-16T08:06:36;16.40;99.90
22337;DHT22;14992;50.844;4.418;2022-10-16T08:09:05;16.40;99.90
22337;DHT22;14992;50.844;4.418;2022-10-16T08:11:33;16.60;99.90
22337;DHT22;14992;50.844;4.418;2022-10-16T08:14:01;16.60;99.90
22337;DHT22;14992;50.844;4.418;2022-10-16T08:16:30;16.60;99.90
22337;DHT22;14992;50.844;4.418;2022-10-16T08:18:58;16.70;99.90
22337;DHT22;14992;50.844;4.418;2022-10-16T08:21:27;16.70;99.90
22337;DHT22;14992;50.844;4.418;2022-10-16T08:23:56;16.70;99.90
22337;DHT22;14992;50.844;4.418;2022-10-16T08:26:25;16.80;99.90
22337;DHT22;14992;50.844;4.418;2022-10-16T08:28:53;16.90;99.90
22337;DHT22;14992;50.844;4.418;2022-10-16T08:31:22;16.80;99.90
22337;DHT22;14992;50.844;4.418;2022-10-16T08:33:50;16.90;99.90
22337;DHT22;14992;50.844;4.418;2022-10-16T08:36:19;16.90;99.90
22337;DHT22;14992;50.844;4.418;2022-10-16T08:38:49;16.80;99.90
22337;DHT22;14992;50.844;4.418;2022-10-16T08:41:26;16.80;99.90
22337;DHT22;14992;50.844;4.418;2022-10-16T08:44:04;16.90;99.90
22337;DHT22;14992;50.844;4.418;2022-10-16T08:46:38;17.00;99.90
22337;DHT22;14992;50.844;4.418;2022-10-16T08:49:16;16.90;99.90
22337;DHT22;14992;50.844;4.418;2022-10-16T08:51:44;17.10;99.90
22337;DHT22;14992;50.844;4.418;2022-10-16T08:54:22;17.20;99.90
22337;DHT22;14992;50.844;4.418;2022-10-16T08:56:55;17.30;99.90
22337;DHT22;14992;50.844;4.418;2022-10-16T08:59:23;17.30;99.90
22337;DHT22;14992;50.844;4.418;2022-10-16T09:01:51;17.20;99.90
22337;DHT22;14992;50.844;4.418;2022-10-16T09:04:26;17.30;99.90
22337;DHT22;14992;50.844;4.418;2022-10-16T09:07:01;17.30;99.90
22337;DHT22;14992;50.844;4.418;2022-10-16T09:09:38;17.30;99.90
22337;DHT22;14992;50.844;4.418;2022-10-16T09:12:09;17.30;99.90
22337;DHT22;14992;50.844;4.418;2022-10-16T09:14:42;17.30;99.90
22337;DHT22;14992;50.844;4.418;2022-10-16T09:17:19;17.20;99.90
22337;DHT22;14992;50.844;4.418;2022-10-16T09:19:50;17.40;99.90
22337;DHT22;14992;50.844;4.418;2022-10-16T09:22:19;17.30;99.90
22337;DHT22;14992;50.844;4.418;2022-10-16T09:24:51;17.60;99.90
22337;DHT22;14992;50.844;4.418;2022-10-16T09:27:19;17.70;99.90
22337;DHT22;14992;50.844;4.418;2022-10-16T09:29:48;17.80;99.90
22337;DHT22;14992;50.844;4.418;2022-10-16T09:32:17;17.80;99.90
22337;DHT22;14992;50.844;4.418;2022-10-16T09:34:47;17.80;99.90
22337;DHT22;14992;50.844;4.418;2022-10-16T09:37:17;17.80;99.90
22337;DHT22;14992;50.844;4.418;2022-10-16T09:39:46;17.70;99.90
22337;DHT22;14992;50.844;4.418;2022-10-16T09:42:17;17.90;99.90
22337;DHT22;14992;50.844;4.418;2022-10-16T09:44:47;17.90;99.90
22337;DHT22;14992;50.844;4.418;2022-10-16T09:47:16;18.10;99.90
22337;DHT22;14992;50.844;4.418;2022-10-16T09:49:50;18.00;99.90
22337;DHT22;14992;50.844;4.418;2022-10-16T09:52:19;18.00;99.90
22337;DHT22;14992;50.844;4.418;2022-10-16T09:54:51;18.10;99.90
22337;DHT22;14992;50.844;4.418;2022-10-16T09:57:20;18.30;99.90
22337;DHT22;14992;50.844;4.418;2022-10-16T09:59:50;18.40;99.90
22337;DHT22;14992;50.844;4.418;2022-10-16T10:02:19;18.20;99.90
22337;DHT22;14992;50.844;4.418;2022-10-16T10:04:48;18.40;99.90
22337;DHT22;14992;50.844;4.418;2022-10-16T10:07:18;18.50;99.90
22337;DHT22;14992;50.844;4.418;2022-10-16T10:09:49;18.60;99.90
22337;DHT22;14992;50.844;4.418;2022-10-16T10:12:17;18.60;99.90
22337;DHT22;14992;50.844;4.418;2022-10-16T10:14:54;18.70;99.90
22337;DHT22;14992;50.844;4.418;2022-10-16T10:17:23;18.70;99.90
22337;DHT22;14992;50.844;4.418;2022-10-16T10:19:52;18.80;99.90
22337;DHT22;14992;50.844;4.418;2022-10-16T10:22:25;18.70;99.90
22337;DHT22;14992;50.844;4.418;2022-10-16T10:24:55;18.90;99.90
22337;DHT22;14992;50.844;4.418;2022-10-16T10:27:24;18.90;99.90
22337;DHT22;14992;50.844;4.418;2022-10-16T10:29:58;18.80;99.90
22337;DHT22;14992;50.844;4.418;2022-10-16T10:32:31;18.60;99.90
22337;DHT22;14992;50.844;4.418;2022-10-16T10:35:04;18.80;99.90
22337;DHT22;14992;50.844;4.418;2022-10-16T10:37:38;19.00;99.90
22337;DHT22;14992;50.844;4.418;2022-10-16T10:40:11;19.00;99.90
22337;DHT22;14992;50.844;4.418;2022-10-16T10:42:44;19.20;99.90
22337;DHT22;14992;50.844;4.418;2022-10-16T10:45:24;19.30;99.90
22337;DHT22;14992;50.844;4.418;2022-10-16T10:48:04;19.20;99.90
22337;DHT22;14992;50.844;4.418;2022-10-16T10:50:36;19.30;99.90
22337;DHT22;14992;50.844;4.418;2022-10-16T10:53:09;19.40;99.90
22337;DHT22;14992;50.844;4.418;2022-10-16T10:55:40;19.30;99.90
22337;DHT22;14992;50.844;4.418;2022-10-16T10:58:15;19.40;99.90
22337;DHT22;14992;50.844;4.418;2022-10-16T11:00:50;19.40;99.90
22337;DHT22;14992;50.844;4.418;2022-10-16T11:03:27;19.40;99.90
22337;DHT22;14992;50.844;4.418;2022-10-16T11:05:59;19.40;99.90
22337;DHT22;14992;50.844;4.418;2022-10-16T11:08:32;19.50;99.90
22337;DHT22;14992;50.844;4.418;2022-10-16T11:11:02;19.30;99.90
22337;DHT22;14992;50.844;4.418;2022-10-16T11:13:32;19.20;99.90
22337;DHT22;14992;50.844;4.418;2022-10-16T11:16:06;19.00;99.90
22337;DHT22;14992;50.844;4.418;2022-10-16T11:18:44;19.00;99.90
22337;DHT22;14992;50.844;4.418;2022-10-16T11:21:17;19.30;99.90
22337;DHT22;14992;50.844;4.418;2022-10-16T11:23:47;19.30;99.90
22337;DHT22;14992;50.844;4.418;2022-10-16T11:26:17;19.50;99.90
22337;DHT22;14992;50.844;4.418;2022-10-16T11:28:48;19.40;99.90
22337;DHT22;14992;50.844;4.418;2022-10-16T11:31:19;19.50;99.90
22337;DHT22;14992;50.844;4.418;2022-10-16T11:33:51;19.70;99.90
22337;DHT22;14992;50.844;4.418;2022-10-16T11:36:22;19.70;99.90
22337;DHT22;14992;50.844;4.418;2022-10-16T11:38:52;19.70;99.90
22337;DHT22;14992;50.844;4.418;2022-10-16T11:41:26;19.80;99.90
22337;DHT22;14992;50.844;4.418;2022-10-16T11:44:06;20.00;99.90
22337;DHT22;14992;50.844;4.418;2022-10-16T11:46:38;19.80;99.90
22337;DHT22;14992;50.844;4.418;2022-10-16T11:49:26;20.00;99.90
22337;DHT22;14992;50.844;4.418;2022-10-16T11:51:57;20.20;99.90
22337;DHT22;14992;50.844;4.418;2022-10-16T11:54:28;20.20;99.90
22337;DHT22;14992;50.844;4.418;2022-10-16T11:57:01;19.90;99.90
22337;DHT22;14992;50.844;4.418;2022-10-16T11:59:31;19.80;99.90
22337;DHT22;14992;50.844;4.418;2022-10-16T12:02:08;19.90;99.90
22337;DHT22;14992;50.844;4.418;2022-10-16T12:04:44;20.00;99.90
22337;DHT22;14992;50.844;4.418;2022-10-16T12:07:14;20.00;99.90
22337;DHT22;14992;50.844;4.418;2022-10-16T12:09:45;20.30;99.90
22337;DHT22;14992;50.844;4.418;2022-10-16T12:12:23;20.40;99.90
22337;DHT22;14992;50.844;4.418;2022-10-16T12:15:00;20.20;99.90
22337;DHT22;14992;50.844;4.418;2022-10-16T12:17:49;20.40;99.90
22337;DHT22;14992;50.844;4.418;2022-10-16T12:20:20;20.40;99.90
22337;DHT22;14992;50.844;4.418;2022-10-16T12:22:49;20.50;99.90
22337;DHT22;14992;50.844;4.418;2022-10-16T12:25:19;20.60;99.90
22337;DHT22;14992;50.844;4.418;2022-10-16T12:27:53;20.80;99.90
22337;DHT22;14992;50.844;4.418;2022-10-16T12:30:23;20.30;99.90
22337;DHT22;14992;50.844;4.418;2022-10-16T12:32:56;20.10;99.90
22337;DHT22;14992;50.844;4.418;2022-10-16T12:35:26;20.20;99.90
22337;DHT22;14992;50.844;4.418;2022-10-16T12:38:03;20.10;99.90
22337;DHT22;14992;50.844;4.418;2022-10-16T12:40:33;20.20;99.90
22337;DHT22;14992;50.844;4.418;2022-10-16T12:43:10;20.60;99.90
22337;DHT22;14992;50.844;4.418;2022-10-16T12:45:39;20.80;99.90
22337;DHT22;14992;50.844;4.418;2022-10-16T12:48:19;21.00;99.90
22337;DHT22;14992;50.844;4.418;2022-10-16T12:50:47;21.10;99.90
22337;DHT22;14992;50.844;4.418;2022-10-16T12:53:17;21.00;99.90
22337;DHT22;14992;50.844;4.418;2022-10-16T12:55:49;21.00;99.90
22337;DHT22;14992;50.844;4.418;2022-10-16T12:58:31;20.90;99.90
22337;DHT22;14992;50.844;4.418;2022-10-16T13:01:03;20.90;99.90
22337;DHT22;14992;50.844;4.418;2022-10-16T13:03:57;20.60;99.90
22337;DHT22;14992;50.844;4.418;2022-10-16T13:06:30;20.50;99.90
22337;DHT22;14992;50.844;4.418;2022-10-16T13:09:13;20.50;99.90
22337;DHT22;14992;50.844;4.418;2022-10-16T13:11:52;20.50;99.90
22337;DHT22;14992;50.844;4.418;2022-10-16T13:14:31;20.60;99.90
22337;DHT22;14992;50.844;4.418;2022-10-16T13:17:05;20.50;99.90
22337;DHT22;14992;50.844;4.418;2022-10-16T13:19:38;20.70;99.90
22337;DHT22;14992;50.844;4.418;2022-10-16T13:22:11;21.00;99.90
22337;DHT22;14992;50.844;4.418;2022-10-16T13:24:53;20.90;99.90
22337;DHT22;14992;50.844;4.418;2022-10-16T13:27:27;21.20;99.90
22337;DHT22;14992;50.844;4.418;2022-10-16T13:30:00;21.50;99.90
22337;DHT22;14992;50.844;4.418;2022-10-16T13:32:29;21.30;99.90
22337;DHT22;14992;50.844;4.418;2022-10-16T13:35:00;21.20;99.90
22337;DHT22;14992;50.844;4.418;2022-10-16T13:37:28;21.30;99.90
22337;DHT22;14992;50.844;4.418;2022-10-16T13:40:02;21.60;99.90
22337;DHT22;14992;50.844;4.418;2022-10-16T13:42:30;21.60;99.90
22337;DHT22;14992;50.844;4.418;2022-10-16T13:45:00;21.70;99.90
22337;DHT22;14992;50.844;4.418;2022-10-16T13:47:28;21.70;99.90
22337;DHT22;14992;50.844;4.418;2022-10-16T13:50:03;21.60;99.90
22337;DHT22;14992;50.844;4.418;2022-10-16T13:52:31;21.40;99.90
22337;DHT22;14992;50.844;4.418;2022-10-16T13:55:00;21.10;99.90
22337;DHT22;14992;50.844;4.418;2022-10-16T13:57:28;20.70;99.90
22337;DHT22;14992;50.844;4.418;2022-10-16T13:59:56;20.60;99.90
22337;DHT22;14992;50.844;4.418;2022-10-16T14:02:25;20.70;99.90
22337;DHT22;14992;50.844;4.418;2022-10-16T14:04:55;21.00;99.90
22337;DHT22;14992;50.844;4.418;2022-10-16T14:07:26;21.20;99.90
22337;DHT22;14992;50.844;4.418;2022-10-16T14:09:55;21.40;99.90
22337;DHT22;14992;50.844;4.418;2022-10-16T14:12:23;21.40;99.90
22337;DHT22;14992;50.844;4.418;2022-10-16T14:14:54;21.20;99.90
22337;DHT22;14992;50.844;4.418;2022-10-16T14:17:24;20.90;99.90
22337;DHT22;14992;50.844;4.418;2022-10-16T14:19:53;20.80;99.90
22337;DHT22;14992;50.844;4.418;2022-10-16T14:22:32;20.70;99.90
22337;DHT22;14992;50.844;4.418;2022-10-16T14:25:00;20.80;99.90
22337;DHT22;14992;50.844;4.418;2022-10-16T14:27:30;20.70;99.90
22337;DHT22;14992;50.844;4.418;2022-10-16T14:30:12;20.70;99.90
22337;DHT22;14992;50.844;4.418;2022-10-16T14:32:42;20.90;99.90
22337;DHT22;14992;50.844;4.418;2022-10-16T14:35:23;21.10;99.90
22337;DHT22;14992;50.844;4.418;2022-10-16T14:37:54;21.40;99.90
22337;DHT22;14992;50.844;4.418;2022-10-16T14:40:23;21.30;99.90
22337;DHT22;14992;50.844;4.418;2022-10-16T14:42:51;21.30;99.90
22337;DHT22;14992;50.844;4.418;2022-10-16T14:45:20;21.20;99.90
22337;DHT22;14992;50.844;4.418;2022-10-16T14:47:49;21.20;99.90
22337;DHT22;14992;50.844;4.418;2022-10-16T14:50:18;21.20;99.90
22337;DHT22;14992;50.844;4.418;2022-10-16T14:52:46;21.20;99.90
22337;DHT22;14992;50.844;4.418;2022-10-16T14:55:16;21.20;99.90
22337;DHT22;14992;50.844;4.418;2022-10-16T14:57:44;21.10;99.90
22337;DHT22;14992;50.844;4.418;2022-10-16T15:00:15;20.70;99.90
22337;DHT22;14992;50.844;4.418;2022-10-16T15:02:43;20.70;99.90
22337;DHT22;14992;50.844;4.418;2022-10-16T15:05:13;20.90;99.90
22337;DHT22;14992;50.844;4.418;2022-10-16T15:07:42;20.70;99.90
22337;DHT22;14992;50.844;4.418;2022-10-16T15:10:10;20.70;99.90
22337;DHT22;14992;50.844;4.418;2022-10-16T15:12:39;20.80;99.90
22337;DHT22;14992;50.844;4.418;2022-10-16T15:15:21;21.10;99.90
22337;DHT22;14992;50.844;4.418;2022-10-16T15:17:51;21.20;99.90
22337;DHT22;14992;50.844;4.418;2022-10-16T15:20:22;21.20;99.90
22337;DHT22;14992;50.844;4.418;2022-10-16T15:22:51;21.20;99.90
22337;DHT22;14992;50.844;4.418;2022-10-16T15:25:26;21.10;99.90
22337;DHT22;14992;50.844;4.418;2022-10-16T15:27:56;20.90;99.90
22337;DHT22;14992;50.844;4.418;2022-10-16T15:30:24;20.80;99.90
22337;DHT22;14992;50.844;4.418;2022-10-16T15:32:53;20.70;99.90
22337;DHT22;14992;50.844;4.418;2022-10-16T15:35:21;20.50;99.90
22337;DHT22;14992;50.844;4.418;2022-10-16T15:37:49;20.50;99.90
22337;DHT22;14992;50.844;4.418;2022-10-16T15:40:18;20.70;99.90
22337;DHT22;14992;50.844;4.418;2022-10-16T15:42:47;20.60;99.90
22337;DHT22;14992;50.844;4.418;2022-10-16T15:45:16;20.30;99.90
22337;DHT22;14992;50.844;4.418;2022-10-16T15:47:45;20.00;99.90
22337;DHT22;14992;50.844;4.418;2022-10-16T15:50:14;20.00;99.90